sensor_id;sensor_type;location;lat;lon;timestamp;pressure;altitude;pressure_sealevel;temperature;humidity
56681;BME280;42558;52.388;13.390;2022-07-06T00:01:02;101592.25;;;16.60;58.58
56681;BME280;42558;52.388;13.390;2022-07-06T00:03:29;101595.62;;;16.61;58.61
56681;BME280;42558;52.388;13.390;2022-07-06T00:05:56;101591.34;;;16.56;58.94
56681;BME280;42558;52.388;13.390;2022-07-06T00:08:24;101590.80;;;16.56;59.07
56681;BME280;42558;52.388;13.390;2022-07-06T00:10:51;101592.23;;;16.54;59.14
56681;BME280;42558;52.388;13.390;2022-07-06T00:13:18;101594.17;;;16.49;59.40
56681;BME280;42558;52.388;13.390;2022-07-06T00:15:45;101597.69;;;16.43;59.56
56681;BME280;42558;52.388;13.390;2022-07-06T00:18:12;101597.52;;;16.46;59.41
56681;BME280;42558;52.388;13.390;2022-07-06T00:20:39;101598.77;;;16.46;59.62
56681;BME280;42558;52.388;13.390;2022-07-06T00:23:06;101599.83;;;16.42;59.64
56681;BME280;42558;52.388;13.390;2022-07-06T00:25:33;101597.34;;;16.43;59.59
56681;BME280;42558;52.388;13.390;2022-07-06T00:28:00;101596.45;;;16.43;59.42
56681;BME280;42558;52.388;13.390;2022-07-06T00:30:27;101594.68;;;16.41;59.75
56681;BME280;42558;52.388;13.390;2022-07-06T00:32:55;101592.34;;;16.36;60.02
56681;BME280;42558;52.388;13.390;2022-07-06T00:35:22;101587.75;;;16.38;59.97
56681;BME280;42558;52.388;13.390;2022-07-06T00:37:49;101590.77;;;16.38;60.04
56681;BME280;42558;52.388;13.390;2022-07-06T00:40:17;101592.00;;;16.36;60.09
56681;BME280;42558;52.388;13.390;2022-07-06T00:42:47;101591.66;;;16.39;60.09
56681;BME280;42558;52.388;13.390;2022-07-06T00:45:17;101591.46;;;16.35;60.51
56681;BME280;42558;52.388;13.390;2022-07-06T00:47:45;101591.65;;;16.33;60.65
56681;BME280;42558;52.388;13.390;2022-07-06T00:50:15;101590.92;;;16.29;60.90
56681;BME280;42558;52.388;13.390;2022-07-06T00:53:10;101591.80;;;16.30;60.70
56681;BME280;42558;52.388;13.390;2022-07-06T00:55:39;101591.46;;;16.33;60.48
56681;BME280;42558;52.388;13.390;2022-07-06T00:58:08;101592.71;;;16.34;60.53
56681;BME280;42558;52.388;13.390;2022-07-06T01:00:36;101588.64;;;16.42;60.56
56681;BME280;42558;52.388;13.390;2022-07-06T01:03:04;101600.89;;;16.41;60.71
56681;BME280;42558;52.388;13.390;2022-07-06T01:05:31;101609.56;;;16.33;60.80
56681;BME280;42558;52.388;13.390;2022-07-06T01:07:57;101609.38;;;16.32;60.63
56681;BME280;42558;52.388;13.390;2022-07-06T01:10:25;101611.88;;;16.38;60.81
56681;BME280;42558;52.388;13.390;2022-07-06T01:12:52;101610.96;;;16.30;61.01
56681;BME280;42558;52.388;13.390;2022-07-06T01:15:24;101599.46;;;16.40;61.03
56681;BME280;42558;52.388;13.390;2022-07-06T01:17:52;101594.52;;;16.49;60.56
56681;BME280;42558;52.388;13.390;2022-07-06T01:20:23;101596.62;;;16.40;60.43
56681;BME280;42558;52.388;13.390;2022-07-06T01:22:53;101597.58;;;16.09;61.83
56681;BME280;42558;52.388;13.390;2022-07-06T01:25:21;101599.73;;;16.16;61.78
56681;BME280;42558;52.388;13.390;2022-07-06T01:27:48;101600.44;;;16.13;61.69
56681;BME280;42558;52.388;13.390;2022-07-06T01:30:18;101599.44;;;15.90;62.52
56681;BME280;42558;52.388;13.390;2022-07-06T01:32:46;101606.95;;;15.70;63.63
56681;BME280;42558;52.388;13.390;2022-07-06T01:35:15;101610.52;;;15.52;64.20
56681;BME280;42558;52.388;13.390;2022-07-06T01:37:43;101611.35;;;15.44;64.69
56681;BME280;42558;52.388;13.390;2022-07-06T01:40:11;101604.53;;;15.32;65.27
56681;BME280;42558;52.388;13.390;2022-07-06T01:42:39;101600.95;;;15.27;65.65
56681;BME280;42558;52.388;13.390;2022-07-06T01:45:07;101595.56;;;15.20;65.85
56681;BME280;42558;52.388;13.390;2022-07-06T01:47:35;101594.92;;;15.05;66.48
56681;BME280;42558;52.388;13.390;2022-07-06T01:50:07;101596.05;;;14.93;66.83
56681;BME280;42558;52.388;13.390;2022-07-06T01:52:35;101595.07;;;14.82;67.49
56681;BME280;42558;52.388;13.390;2022-07-06T01:55:03;101596.77;;;14.75;67.96
56681;BME280;42558;52.388;13.390;2022-07-06T01:57:30;101601.85;;;14.70;67.91
56681;BME280;42558;52.388;13.390;2022-07-06T01:59:57;101600.42;;;15.04;66.75
56681;BME280;42558;52.388;13.390;2022-07-06T02:02:24;101603.38;;;14.99;66.88
56681;BME280;42558;52.388;13.390;2022-07-06T02:04:51;101603.08;;;14.86;67.24
56681;BME280;42558;52.388;13.390;2022-07-06T02:07:18;101606.06;;;15.04;67.00
56681;BME280;42558;52.388;13.390;2022-07-06T02:09:44;101609.05;;;15.00;66.96
56681;BME280;42558;52.388;13.390;2022-07-06T02:12:14;101618.88;;;14.91;67.44
56681;BME280;42558;52.388;13.390;2022-07-06T02:14:45;101629.15;;;14.91;67.43
56681;BME280;42558;52.388;13.390;2022-07-06T02:17:11;101635.88;;;14.91;67.51
56681;BME280;42558;52.388;13.390;2022-07-06T02:19:38;101639.38;;;14.87;67.65
56681;BME280;42558;52.388;13.390;2022-07-06T02:22:05;101639.41;;;14.90;67.72
56681;BME280;42558;52.388;13.390;2022-07-06T02:24:32;101636.29;;;14.97;67.72
56681;BME280;42558;52.388;13.390;2022-07-06T02:26:59;101640.35;;;15.15;66.49
56681;BME280;42558;52.388;13.390;2022-07-06T02:29:25;101639.38;;;15.24;67.08
56681;BME280;42558;52.388;13.390;2022-07-06T02:31:52;101638.48;;;15.25;68.35
56681;BME280;42558;52.388;13.390;2022-07-06T02:34:20;101644.90;;;15.28;68.52
56681;BME280;42558;52.388;13.390;2022-07-06T02:36:46;101645.79;;;15.29;69.06
56681;BME280;42558;52.388;13.390;2022-07-06T02:39:13;101644.36;;;15.27;69.30
56681;BME280;42558;52.388;13.390;2022-07-06T02:41:40;101645.20;;;15.23;69.34
56681;BME280;42558;52.388;13.390;2022-07-06T02:44:07;101646.07;;;15.21;69.35
56681;BME280;42558;52.388;13.390;2022-07-06T02:46:34;101649.66;;;15.25;69.22
56681;BME280;42558;52.388;13.390;2022-07-06T02:49:01;101654.09;;;15.26;69.50
56681;BME280;42558;52.388;13.390;2022-07-06T02:51:28;101652.61;;;15.19;69.70
56681;BME280;42558;52.388;13.390;2022-07-06T02:53:55;101657.19;;;15.17;69.79
56681;BME280;42558;52.388;13.390;2022-07-06T02:56:21;101659.17;;;15.20;69.25
56681;BME280;42558;52.388;13.390;2022-07-06T02:58:48;101659.83;;;15.13;69.55
56681;BME280;42558;52.388;13.390;2022-07-06T03:01:15;101658.20;;;15.11;69.83
56681;BME280;42558;52.388;13.390;2022-07-06T03:03:42;101663.70;;;15.12;69.70
56681;BME280;42558;52.388;13.390;2022-07-06T03:06:09;101668.14;;;15.12;69.51
56681;BME280;42558;52.388;13.390;2022-07-06T03:08:36;101674.00;;;15.15;69.37
56681;BME280;42558;52.388;13.390;2022-07-06T03:11:03;101673.13;;;15.16;69.32
56681;BME280;42558;52.388;13.390;2022-07-06T03:13:30;101672.46;;;15.19;69.15
56681;BME280;42558;52.388;13.390;2022-07-06T03:15:57;101675.63;;;15.18;69.26
56681;BME280;42558;52.388;13.390;2022-07-06T03:18:24;101671.52;;;15.13;70.13
56681;BME280;42558;52.388;13.390;2022-07-06T03:20:51;101677.35;;;15.12;70.79
56681;BME280;42558;52.388;13.390;2022-07-06T03:23:19;101682.68;;;14.96;72.64
56681;BME280;42558;52.388;13.390;2022-07-06T03:25:46;101681.32;;;14.85;74.46
56681;BME280;42558;52.388;13.390;2022-07-06T03:28:13;101677.02;;;14.80;76.39
56681;BME280;42558;52.388;13.390;2022-07-06T03:30:40;101676.90;;;14.70;76.61
56681;BME280;42558;52.388;13.390;2022-07-06T03:33:07;101680.21;;;14.50;78.08
56681;BME280;42558;52.388;13.390;2022-07-06T03:35:34;101676.33;;;14.52;78.59
56681;BME280;42558;52.388;13.390;2022-07-06T03:38:01;101675.73;;;14.46;79.41
56681;BME280;42558;52.388;13.390;2022-07-06T03:40:29;101671.88;;;14.49;80.04
56681;BME280;42558;52.388;13.390;2022-07-06T03:42:56;101669.09;;;14.53;79.44
56681;BME280;42558;52.388;13.390;2022-07-06T03:45:23;101671.82;;;14.45;80.33
56681;BME280;42558;52.388;13.390;2022-07-06T03:47:50;101670.27;;;14.36;80.94
56681;BME280;42558;52.388;13.390;2022-07-06T03:50:17;101675.27;;;14.26;81.48
56681;BME280;42558;52.388;13.390;2022-07-06T03:52:44;101677.59;;;14.29;81.89
56681;BME280;42558;52.388;13.390;2022-07-06T03:55:12;101680.48;;;14.19;82.37
56681;BME280;42558;52.388;13.390;2022-07-06T03:57:39;101684.10;;;14.12;83.18
56681;BME280;42558;52.388;13.390;2022-07-06T04:00:09;101678.05;;;14.22;83.09
56681;BME280;42558;52.388;13.390;2022-07-06T04:02:36;101677.73;;;14.38;81.63
56681;BME280;42558;52.388;13.390;2022-07-06T04:05:04;101678.56;;;14.35;82.05
56681;BME280;42558;52.388;13.390;2022-07-06T04:07:31;101677.60;;;14.29;82.52
56681;BME280;42558;52.388;13.390;2022-07-06T04:09:58;101679.52;;;14.27;83.43
56681;BME280;42558;52.388;13.390;2022-07-06T04:12:25;101683.97;;;14.29;83.54
56681;BME280;42558;52.388;13.390;2022-07-06T04:14:52;101679.00;;;14.28;83.14
56681;BME280;42558;52.388;13.390;2022-07-06T04:17:19;101679.95;;;14.32;83.29
56681;BME280;42558;52.388;13.390;2022-07-06T04:20:05;101684.60;;;14.36;83.42
56681;BME280;42558;52.388;13.390;2022-07-06T04:22:32;101683.14;;;14.33;83.42
56681;BME280;42558;52.388;13.390;2022-07-06T04:24:59;101682.42;;;14.33;83.43
56681;BME280;42558;52.388;13.390;2022-07-06T04:27:26;101681.69;;;14.43;83.36
56681;BME280;42558;52.388;13.390;2022-07-06T04:29:53;101679.17;;;14.52;82.88
56681;BME280;42558;52.388;13.390;2022-07-06T04:32:20;101677.79;;;14.55;82.24
56681;BME280;42558;52.388;13.390;2022-07-06T04:34:51;101675.63;;;14.67;81.27
56681;BME280;42558;52.388;13.390;2022-07-06T04:37:18;101671.92;;;14.69;80.56
56681;BME280;42558;52.388;13.390;2022-07-06T04:39:45;101673.33;;;14.66;79.78
56681;BME280;42558;52.388;13.390;2022-07-06T04:42:15;101677.34;;;14.61;79.70
56681;BME280;42558;52.388;13.390;2022-07-06T04:44:42;101677.68;;;14.77;78.83
56681;BME280;42558;52.388;13.390;2022-07-06T04:47:10;101678.96;;;14.80;77.95
56681;BME280;42558;52.388;13.390;2022-07-06T04:49:36;101677.42;;;14.85;77.71
56681;BME280;42558;52.388;13.390;2022-07-06T04:52:05;101682.85;;;14.95;76.58
56681;BME280;42558;52.388;13.390;2022-07-06T04:54:32;101682.41;;;15.04;76.07
56681;BME280;42558;52.388;13.390;2022-07-06T04:56:59;101680.97;;;15.21;75.74
56681;BME280;42558;52.388;13.390;2022-07-06T04:59:25;101681.87;;;15.21;74.88
56681;BME280;42558;52.388;13.390;2022-07-06T05:01:52;101680.29;;;15.23;74.22
56681;BME280;42558;52.388;13.390;2022-07-06T05:04:19;101681.35;;;15.24;73.46
56681;BME280;42558;52.388;13.390;2022-07-06T05:06:46;101686.25;;;15.18;73.70
56681;BME280;42558;52.388;13.390;2022-07-06T05:09:13;101681.63;;;15.16;73.82
56681;BME280;42558;52.388;13.390;2022-07-06T05:11:40;101680.04;;;15.17;73.35
56681;BME280;42558;52.388;13.390;2022-07-06T05:14:08;101680.55;;;15.32;73.06
56681;BME280;42558;52.388;13.390;2022-07-06T05:16:35;101683.06;;;15.37;72.94
56681;BME280;42558;52.388;13.390;2022-07-06T05:19:02;101681.69;;;15.43;72.36
56681;BME280;42558;52.388;13.390;2022-07-06T05:21:29;101681.30;;;15.38;72.77
56681;BME280;42558;52.388;13.390;2022-07-06T05:23:55;101678.67;;;15.40;72.45
56681;BME280;42558;52.388;13.390;2022-07-06T05:26:22;101682.30;;;15.32;71.95
56681;BME280;42558;52.388;13.390;2022-07-06T05:28:49;101684.49;;;15.19;71.49
56681;BME280;42558;52.388;13.390;2022-07-06T05:31:16;101681.29;;;15.37;71.47
56681;BME280;42558;52.388;13.390;2022-07-06T05:33:43;101680.06;;;15.59;70.63
56681;BME280;42558;52.388;13.390;2022-07-06T05:36:10;101680.69;;;15.68;70.45
56681;BME280;42558;52.388;13.390;2022-07-06T05:38:36;101682.46;;;15.93;70.16
56681;BME280;42558;52.388;13.390;2022-07-06T05:41:03;101682.16;;;16.02;68.54
56681;BME280;42558;52.388;13.390;2022-07-06T05:43:30;101685.93;;;16.09;68.65
56681;BME280;42558;52.388;13.390;2022-07-06T05:45:57;101680.98;;;16.16;67.92
56681;BME280;42558;52.388;13.390;2022-07-06T05:48:23;101679.77;;;15.88;67.74
56681;BME280;42558;52.388;13.390;2022-07-06T05:51:09;101677.44;;;15.63;69.10
56681;BME280;42558;52.388;13.390;2022-07-06T05:53:36;101674.52;;;15.75;69.21
56681;BME280;42558;52.388;13.390;2022-07-06T05:56:02;101670.60;;;15.96;67.08
56681;BME280;42558;52.388;13.390;2022-07-06T05:58:29;101668.23;;;16.20;66.14
56681;BME280;42558;52.388;13.390;2022-07-06T06:00:56;101669.40;;;16.43;66.09
56681;BME280;42558;52.388;13.390;2022-07-06T06:03:23;101671.84;;;16.72;64.52
56681;BME280;42558;52.388;13.390;2022-07-06T06:05:50;101671.73;;;16.87;63.04
56681;BME280;42558;52.388;13.390;2022-07-06T06:08:17;101674.19;;;16.85;61.57
56681;BME280;42558;52.388;13.390;2022-07-06T06:10:44;101670.13;;;16.91;61.57
56681;BME280;42558;52.388;13.390;2022-07-06T06:13:11;101669.45;;;17.10;61.20
56681;BME280;42558;52.388;13.390;2022-07-06T06:15:38;101670.54;;;17.22;60.70
56681;BME280;42558;52.388;13.390;2022-07-06T06:18:05;101666.09;;;17.26;60.24
56681;BME280;42558;52.388;13.390;2022-07-06T06:20:32;101665.91;;;17.34;60.06
56681;BME280;42558;52.388;13.390;2022-07-06T06:23:00;101673.37;;;17.29;59.28
56681;BME280;42558;52.388;13.390;2022-07-06T06:25:36;101672.31;;;17.24;59.77
56681;BME280;42558;52.388;13.390;2022-07-06T06:28:06;101674.27;;;17.30;59.73
56681;BME280;42558;52.388;13.390;2022-07-06T06:30:35;101675.70;;;17.55;59.61
56681;BME280;42558;52.388;13.390;2022-07-06T06:33:17;101679.25;;;17.65;59.35
56681;BME280;42558;52.388;13.390;2022-07-06T06:35:50;101678.19;;;17.48;58.92
56681;BME280;42558;52.388;13.390;2022-07-06T06:38:20;101680.49;;;17.65;58.91
56681;BME280;42558;52.388;13.390;2022-07-06T06:40:48;101680.84;;;17.73;58.80
56681;BME280;42558;52.388;13.390;2022-07-06T06:43:14;101677.47;;;17.70;58.59
56681;BME280;42558;52.388;13.390;2022-07-06T06:45:41;101679.95;;;17.74;58.57
56681;BME280;42558;52.388;13.390;2022-07-06T06:48:08;101683.16;;;17.88;57.86
56681;BME280;42558;52.388;13.390;2022-07-06T06:50:49;101677.13;;;17.82;57.89
56681;BME280;42558;52.388;13.390;2022-07-06T06:53:16;101678.11;;;18.15;57.29
56681;BME280;42558;52.388;13.390;2022-07-06T06:55:42;101681.71;;;18.53;56.77
56681;BME280;42558;52.388;13.390;2022-07-06T06:58:09;101676.67;;;19.02;56.25
56681;BME280;42558;52.388;13.390;2022-07-06T07:00:36;101676.04;;;19.17;55.23
56681;BME280;42558;52.388;13.390;2022-07-06T07:03:03;101678.91;;;18.84;53.86
56681;BME280;42558;52.388;13.390;2022-07-06T07:05:30;101687.29;;;18.38;54.78
56681;BME280;42558;52.388;13.390;2022-07-06T07:07:57;101686.17;;;17.68;55.56
56681;BME280;42558;52.388;13.390;2022-07-06T07:10:32;101687.26;;;17.72;56.98
56681;BME280;42558;52.388;13.390;2022-07-06T07:12:59;101688.22;;;18.27;56.37
56681;BME280;42558;52.388;13.390;2022-07-06T07:15:27;101685.73;;;18.75;55.96
56681;BME280;42558;52.388;13.390;2022-07-06T07:17:53;101687.98;;;18.88;54.70
56681;BME280;42558;52.388;13.390;2022-07-06T07:20:21;101693.20;;;18.27;55.65
56681;BME280;42558;52.388;13.390;2022-07-06T07:22:48;101692.99;;;18.39;56.24
56681;BME280;42558;52.388;13.390;2022-07-06T07:25:15;101690.86;;;18.85;53.97
56681;BME280;42558;52.388;13.390;2022-07-06T07:27:42;101690.98;;;18.91;53.43
56681;BME280;42558;52.388;13.390;2022-07-06T07:30:10;101688.20;;;18.81;53.78
56681;BME280;42558;52.388;13.390;2022-07-06T07:32:37;101676.63;;;19.07;52.57
56681;BME280;42558;52.388;13.390;2022-07-06T07:35:04;101684.08;;;19.36;53.02
56681;BME280;42558;52.388;13.390;2022-07-06T07:37:31;101675.78;;;19.27;53.16
56681;BME280;42558;52.388;13.390;2022-07-06T07:39:58;101680.20;;;19.07;53.56
56681;BME280;42558;52.388;13.390;2022-07-06T07:42:26;101677.31;;;19.36;53.93
56681;BME280;42558;52.388;13.390;2022-07-06T07:44:52;101675.14;;;19.40;52.42
56681;BME280;42558;52.388;13.390;2022-07-06T07:47:19;101680.33;;;18.85;54.27
56681;BME280;42558;52.388;13.390;2022-07-06T07:49:46;101689.08;;;18.84;55.34
56681;BME280;42558;52.388;13.390;2022-07-06T07:52:14;101693.53;;;18.37;55.88
56681;BME280;42558;52.388;13.390;2022-07-06T07:54:40;101691.91;;;18.85;55.49
56681;BME280;42558;52.388;13.390;2022-07-06T07:57:14;101685.55;;;19.55;52.90
56681;BME280;42558;52.388;13.390;2022-07-06T07:59:41;101686.49;;;19.71;51.77
56681;BME280;42558;52.388;13.390;2022-07-06T08:02:08;101692.51;;;19.31;52.61
56681;BME280;42558;52.388;13.390;2022-07-06T08:04:36;101699.88;;;18.53;54.23
56681;BME280;42558;52.388;13.390;2022-07-06T08:07:03;101703.88;;;18.33;55.46
56681;BME280;42558;52.388;13.390;2022-07-06T08:09:30;101703.83;;;18.45;55.07
56681;BME280;42558;52.388;13.390;2022-07-06T08:11:57;101696.91;;;19.13;52.57
56681;BME280;42558;52.388;13.390;2022-07-06T08:14:25;101692.27;;;19.39;51.07
56681;BME280;42558;52.388;13.390;2022-07-06T08:16:52;101688.23;;;19.76;49.77
56681;BME280;42558;52.388;13.390;2022-07-06T08:19:19;101692.23;;;19.86;47.77
56681;BME280;42558;52.388;13.390;2022-07-06T08:21:45;101686.30;;;20.08;47.66
56681;BME280;42558;52.388;13.390;2022-07-06T08:24:13;101686.83;;;19.73;48.55
56681;BME280;42558;52.388;13.390;2022-07-06T08:26:40;101686.66;;;19.73;48.71
56681;BME280;42558;52.388;13.390;2022-07-06T08:29:06;101694.49;;;19.53;48.81
56681;BME280;42558;52.388;13.390;2022-07-06T08:31:33;101701.35;;;19.15;49.06
56681;BME280;42558;52.388;13.390;2022-07-06T08:34:22;101704.78;;;18.80;50.17
56681;BME280;42558;52.388;13.390;2022-07-06T08:36:49;101698.33;;;19.14;49.88
56681;BME280;42558;52.388;13.390;2022-07-06T08:39:16;101690.95;;;19.48;49.14
56681;BME280;42558;52.388;13.390;2022-07-06T08:41:45;101692.73;;;19.73;48.94
56681;BME280;42558;52.388;13.390;2022-07-06T08:44:15;101694.45;;;19.78;48.35
56681;BME280;42558;52.388;13.390;2022-07-06T08:46:43;101696.42;;;19.32;49.08
56681;BME280;42558;52.388;13.390;2022-07-06T08:49:16;101696.41;;;19.08;50.08
56681;BME280;42558;52.388;13.390;2022-07-06T08:51:45;101692.91;;;19.23;49.53
56681;BME280;42558;52.388;13.390;2022-07-06T08:54:12;101701.41;;;18.77;50.09
56681;BME280;42558;52.388;13.390;2022-07-06T08:56:39;101707.40;;;18.86;50.44
56681;BME280;42558;52.388;13.390;2022-07-06T08:59:15;101704.43;;;18.77;48.45
56681;BME280;42558;52.388;13.390;2022-07-06T09:01:44;101697.47;;;18.81;48.19
56681;BME280;42558;52.388;13.390;2022-07-06T09:04:15;101698.98;;;18.97;48.28
56681;BME280;42558;52.388;13.390;2022-07-06T09:06:46;101701.40;;;18.76;46.74
56681;BME280;42558;52.388;13.390;2022-07-06T09:09:20;101703.59;;;18.71;47.61
56681;BME280;42558;52.388;13.390;2022-07-06T09:11:48;101707.00;;;18.57;47.68
56681;BME280;42558;52.388;13.390;2022-07-06T09:14:16;101707.04;;;18.45;48.39
56681;BME280;42558;52.388;13.390;2022-07-06T09:16:51;101713.51;;;18.26;49.05
56681;BME280;42558;52.388;13.390;2022-07-06T09:19:18;101714.23;;;18.20;50.02
56681;BME280;42558;52.388;13.390;2022-07-06T09:21:45;101715.16;;;18.09;49.91
56681;BME280;42558;52.388;13.390;2022-07-06T09:24:13;101714.98;;;18.03;49.49
56681;BME280;42558;52.388;13.390;2022-07-06T09:26:40;101717.98;;;18.14;50.06
56681;BME280;42558;52.388;13.390;2022-07-06T09:29:10;101724.02;;;18.27;49.46
56681;BME280;42558;52.388;13.390;2022-07-06T09:31:38;101720.66;;;18.17;45.67
56681;BME280;42558;52.388;13.390;2022-07-06T09:34:07;101719.75;;;18.17;44.94
56681;BME280;42558;52.388;13.390;2022-07-06T09:36:47;101718.18;;;18.07;44.80
56681;BME280;42558;52.388;13.390;2022-07-06T09:39:27;101714.41;;;18.20;45.62
56681;BME280;42558;52.388;13.390;2022-07-06T09:42:00;101715.44;;;18.36;46.39
56681;BME280;42558;52.388;13.390;2022-07-06T09:44:40;101715.46;;;18.29;45.38
56681;BME280;42558;52.388;13.390;2022-07-06T09:47:11;101712.27;;;18.19;42.52
56681;BME280;42558;52.388;13.390;2022-07-06T09:49:39;101706.05;;;18.18;41.90
56681;BME280;42558;52.388;13.390;2022-07-06T09:52:10;101704.75;;;18.37;41.69
56681;BME280;42558;52.388;13.390;2022-07-06T09:54:39;101707.40;;;18.43;41.70
56681;BME280;42558;52.388;13.390;2022-07-06T09:57:07;101708.11;;;18.44;41.87
56681;BME280;42558;52.388;13.390;2022-07-06T09:59:36;101710.39;;;18.59;43.48
56681;BME280;42558;52.388;13.390;2022-07-06T10:02:06;101711.36;;;18.82;43.94
56681;BME280;42558;52.388;13.390;2022-07-06T10:04:34;101707.86;;;18.70;44.41
56681;BME280;42558;52.388;13.390;2022-07-06T10:07:02;101712.61;;;18.82;44.41
56681;BME280;42558;52.388;13.390;2022-07-06T10:09:29;101706.40;;;18.73;43.99
56681;BME280;42558;52.388;13.390;2022-07-06T10:12:00;101708.58;;;18.61;44.97
56681;BME280;42558;52.388;13.390;2022-07-06T10:14:30;101701.63;;;18.60;45.15
56681;BME280;42558;52.388;13.390;2022-07-06T10:17:00;101703.42;;;18.59;45.52
56681;BME280;42558;52.388;13.390;2022-07-06T10:19:29;101705.91;;;18.66;45.54
56681;BME280;42558;52.388;13.390;2022-07-06T10:22:03;101705.55;;;18.63;45.88
56681;BME280;42558;52.388;13.390;2022-07-06T10:24:32;101711.24;;;18.64;45.67
56681;BME280;42558;52.388;13.390;2022-07-06T10:27:07;101710.84;;;18.77;45.13
56681;BME280;42558;52.388;13.390;2022-07-06T10:29:36;101710.70;;;18.64;44.93
56681;BME280;42558;52.388;13.390;2022-07-06T10:32:04;101709.95;;;18.76;44.79
56681;BME280;42558;52.388;13.390;2022-07-06T10:34:33;101707.42;;;18.85;43.04
56681;BME280;42558;52.388;13.390;2022-07-06T10:37:02;101706.61;;;18.68;40.36
56681;BME280;42558;52.388;13.390;2022-07-06T10:39:39;101704.77;;;18.82;40.96
56681;BME280;42558;52.388;13.390;2022-07-06T10:42:56;101695.27;;;19.67;40.43
56681;BME280;42558;52.388;13.390;2022-07-06T10:53:21;101693.02;;;19.35;43.16
56681;BME280;42558;52.388;13.390;2022-07-06T10:55:55;101690.20;;;19.30;42.78
56681;BME280;42558;52.388;13.390;2022-07-06T10:58:39;101693.61;;;19.25;43.70
56681;BME280;42558;52.388;13.390;2022-07-06T11:01:09;101697.85;;;19.32;43.70
56681;BME280;42558;52.388;13.390;2022-07-06T11:03:43;101704.25;;;19.09;44.04
56681;BME280;42558;52.388;13.390;2022-07-06T11:06:18;101701.77;;;19.33;45.01
56681;BME280;42558;52.388;13.390;2022-07-06T11:08:50;101699.82;;;19.31;43.33
56681;BME280;42558;52.388;13.390;2022-07-06T11:17:00;101691.30;;;19.91;41.08
56681;BME280;42558;52.388;13.390;2022-07-06T11:19:29;101687.73;;;19.91;41.57
56681;BME280;42558;52.388;13.390;2022-07-06T11:24:35;101676.89;;;19.87;42.18
56681;BME280;42558;52.388;13.390;2022-07-06T11:27:03;101687.96;;;19.43;42.66
56681;BME280;42558;52.388;13.390;2022-07-06T11:29:30;101693.98;;;18.98;43.92
56681;BME280;42558;52.388;13.390;2022-07-06T11:32:00;101692.91;;;18.97;44.84
56681;BME280;42558;52.388;13.390;2022-07-06T11:34:33;101690.40;;;19.00;44.62
56681;BME280;42558;52.388;13.390;2022-07-06T11:37:11;101692.02;;;18.98;45.20
56681;BME280;42558;52.388;13.390;2022-07-06T11:39:41;101691.30;;;18.98;44.89
56681;BME280;42558;52.388;13.390;2022-07-06T11:42:13;101695.50;;;19.11;45.34
56681;BME280;42558;52.388;13.390;2022-07-06T11:44:41;101687.12;;;19.36;44.35
56681;BME280;42558;52.388;13.390;2022-07-06T11:47:10;101687.77;;;19.66;44.67
56681;BME280;42558;52.388;13.390;2022-07-06T11:49:41;101680.80;;;19.68;42.86
56681;BME280;42558;52.388;13.390;2022-07-06T11:52:11;101680.28;;;19.85;43.73
56681;BME280;42558;52.388;13.390;2022-07-06T11:54:40;101682.73;;;19.72;42.82
56681;BME280;42558;52.388;13.390;2022-07-06T11:57:09;101678.41;;;19.53;44.15
56681;BME280;42558;52.388;13.390;2022-07-06T11:59:40;101673.39;;;19.59;44.22
56681;BME280;42558;52.388;13.390;2022-07-06T12:02:11;101671.82;;;19.75;45.07
56681;BME280;42558;52.388;13.390;2022-07-06T12:04:43;101663.63;;;19.92;44.28
56681;BME280;42558;52.388;13.390;2022-07-06T12:07:14;101667.86;;;19.81;43.65
56681;BME280;42558;52.388;13.390;2022-07-06T12:09:46;101670.39;;;19.53;43.01
56681;BME280;42558;52.388;13.390;2022-07-06T12:12:15;101666.98;;;19.78;42.61
56681;BME280;42558;52.388;13.390;2022-07-06T12:14:44;101662.29;;;20.01;42.86
56681;BME280;42558;52.388;13.390;2022-07-06T12:17:14;101657.86;;;19.79;42.73
56681;BME280;42558;52.388;13.390;2022-07-06T12:19:42;101662.14;;;19.60;44.08
56681;BME280;42558;52.388;13.390;2022-07-06T12:22:11;101666.29;;;19.74;44.06
56681;BME280;42558;52.388;13.390;2022-07-06T12:24:43;101662.64;;;19.66;44.02
56681;BME280;42558;52.388;13.390;2022-07-06T12:27:15;101663.14;;;19.46;44.83
56681;BME280;42558;52.388;13.390;2022-07-06T12:29:43;101664.73;;;19.47;44.91
56681;BME280;42558;52.388;13.390;2022-07-06T12:32:20;101659.37;;;19.49;45.18
56681;BME280;42558;52.388;13.390;2022-07-06T12:35:06;101653.33;;;19.86;44.41
56681;BME280;42558;52.388;13.390;2022-07-06T12:37:34;101651.45;;;20.11;43.63
56681;BME280;42558;52.388;13.390;2022-07-06T12:40:11;101656.70;;;20.35;43.16
56681;BME280;42558;52.388;13.390;2022-07-06T12:42:48;101651.98;;;20.42;43.33
56681;BME280;42558;52.388;13.390;2022-07-06T12:45:16;101649.52;;;20.54;43.62
56681;BME280;42558;52.388;13.390;2022-07-06T12:48:04;101647.04;;;20.78;43.07
56681;BME280;42558;52.388;13.390;2022-07-06T12:50:39;101653.23;;;20.58;43.19
56681;BME280;42558;52.388;13.390;2022-07-06T12:53:24;101651.05;;;20.28;43.19
56681;BME280;42558;52.388;13.390;2022-07-06T12:56:13;101643.76;;;20.13;44.77
56681;BME280;42558;52.388;13.390;2022-07-06T12:59:00;101648.39;;;20.29;43.99
56681;BME280;42558;52.388;13.390;2022-07-06T13:01:27;101651.64;;;20.25;43.58
56681;BME280;42558;52.388;13.390;2022-07-06T13:03:56;101648.02;;;20.30;43.35
56681;BME280;42558;52.388;13.390;2022-07-06T13:06:33;101646.55;;;20.03;43.47